Seligman, AZ

6:14 AM MST on July 22, 2014 (GMT -0700)
3 mi. due north of Ash Fork AZ (KAZASHFO2) Elev 5395 ft | 35.27 °N, 112.49 °W | Change Station

Current weather conditions updated 4 minutes ago

Clear
Clear
59.6 °F
Feels Like 59.6 °F
N
2.0
Wind Variable Wind from NW
Gusts 2.0 mph

Today is forecast to be Warmer than yesterday.

Today
High -- | Low -- °F
--% Chance of Precip.
Yesterday
High -- | Low -- °F
Precip. -- in
5:32 AM 7:42 PM
Waning Crescent, 17% visible
Pressure 30.45 in
Visibility 10.0 miles
Clouds Clear
Dew Point 37 °F
Humidity 43%
Rainfall 0.00 in
Snow Depth Not available.
UV 0 out of 12
Pollen 4.70 out of 12
Air Quality Not available.
Flu Activity Local Activity
METAR KCMR 221255Z AUTO 15006KT 10SM CLR 10/03 A3045 RMK AO1

More Conditions Fewer Conditions

Pressure 30.45 in
Visibility 10.0 miles
Clouds Clear
Dew Point 37 °F
Humidity 43%
Rainfall 0.00 in
Snow Depth Not available.
UV 0 out of 12
Pollen 4.70 out of 12
Air Quality Not available.
Flu Activity Local Activity
METAR KCMR 221255Z AUTO 15006KT 10SM CLR 10/03 A3045 RMK AO1

More Conditions Fewer Conditions

10-Day Weather Forecast

LIGHTNING

Thunderstorms are forecast for your area. Cloud conditions might be right for producing strikes in the next few days, though lightning itself cannot be forecasted.

Lightning is a visible electrical discharge produced by a thunderstorm, based on the build up of oppositely charged particles within a cloud and from cloud to ground.

Know how to stay safe in a lightning storm.

Check out these Lightning WunderPhotos!

Almanac

Astronomy

Jul. 22, 2014 Rise Set
Actual Time 5:32 AM MST 7:42 PM MST
Civil Twilight 5:04 AM MST 8:11 PM MST
Nautical Twilight 4:29 AM MST 8:46 PM MST
Astronomical Twilight 3:51 AM MST 9:23 PM MST
Moon 2:07 AM MST 4:24 PM MST
Length of Visible Light 15h 07m
Length of Day
14h 09m
Tomorrow will be 1m 23s shorter.
Waning Crescent, 17% of the Moon is Illuminated
Today
Waning Crescent
Jul 26
New
Aug 3
First Quarter
Aug 10
Full
Aug 17
Last Quarter

Today's Extremes

State Highs State Lows

Community

WunderPhotos

Upload Photos

1,736,221 photos uploaded!

Nearby

Snow Depth

Station Depth Elevation
White Horse Lake 0 in 7180 ft
Snowslide Canyon 0 in 9730 ft
Mormon Mountain 0 in 7500 ft
Workman Creek 1 in 6900 ft
Maverick Fork 0 in 9200 ft

Earthquake Activity

City Distance Mag. Time & Date
No recent earthquake activity has been reported nearby.
Minimum magnitude displayed is 2.5.

Coastal Water Temperatures

Place Temperature
No Stations Reporting

Nearby Weather Stations

Station Location Temp. Dew Point Humidity Wind Precip. Elev Updated Type
Sierra Verda Ranch Unit 32, Seligman, AZ 60.7 °F 39 °F 44% SSE  at  1.0 mph 0.00 in / hr 5460 ft 3:37 AM MST Rapid Fire
3 mi. due north of Ash Fork AZ, Ash Fork, AZ 59.6 °F 37 °F 43% NW  at  2.0 mph 0.00 in / hr 5395 ft 6:10 AM MST Normal

Show More Stations Show Fewer Stations